Time;durP1;ratioP1;P1;durP2;ratioP2;P2;SDS_P1;SDS_P2;PMS_P1;PMS_P2;Temp;Humidity;BMP_temperature;BMP_pressure;BME280_temperature;BME280_humidity;BME280_pressure;Samples;Min_cycle;Max_cycle;Signal;HPM_P1;HPM_P2
2024/01/01 00:00:24;;;;;;;63.93;37.80;;;;;;;10.49;64.61;99797.88;5024091;28;20052;-67
2024/01/01 00:02:52;;;;;;;55.75;34.75;;;;;;;10.44;63.46;99798.59;5020222;28;20046;-67
2024/01/01 00:05:19;;;;;;;58.17;32.35;;;;;;;10.42;63.63;99800.72;5028042;28;20444;-67
2024/01/01 00:07:50;;;;;;;52.38;29.63;;;;;;;10.41;63.62;99823.28;5023552;28;20054;-67
2024/01/01 00:10:20;;;;;;;51.20;27.73;;;;;;;10.39;63.09;99818.19;5021803;28;20058;-67
2024/01/01 00:12:47;;;;;;;42.40;22.48;;;;;;;10.39;63.28;99826.25;5019871;28;20066;-67
2024/01/01 00:15:16;;;;;;;40.35;19.80;;;;;;;10.36;63.28;99834.78;5019946;28;20049;-67
2024/01/01 00:17:43;;;;;;;36.58;19.35;;;;;;;10.36;63.64;99842.84;5021612;28;20173;-67
2024/01/01 00:20:11;;;;;;;33.72;20.15;;;;;;;10.36;64.29;99833.97;5021728;28;20078;-67
2024/01/01 00:22:41;;;;;;;25.83;16.38;;;;;;;10.37;64.10;99843.66;5016840;28;20049;-67
2024/01/01 00:25:09;;;;;;;27.50;16.00;;;;;;;10.33;64.00;99854.06;5024188;28;20538;-67
2024/01/01 00:27:38;;;;;;;26.45;13.73;;;;;;;10.30;64.23;99838.44;5022589;28;20149;-67
2024/01/01 00:30:07;;;;;;;23.83;13.40;;;;;;;10.27;64.17;99838.94;5022237;28;20058;-66
2024/01/01 00:32:35;;;;;;;25.25;11.82;;;;;;;10.26;64.29;99856.09;5028812;28;20155;-67
2024/01/01 00:35:05;;;;;;;21.88;11.40;;;;;;;10.25;64.40;99845.63;5021986;28;20454;-67
2024/01/01 00:37:33;;;;;;;20.52;11.82;;;;;;;10.26;64.45;99840.00;5009540;28;20058;-68
2024/01/01 00:40:02;;;;;;;16.95;10.45;;;;;;;10.30;64.56;99845.69;5016208;28;20049;-67
2024/01/01 00:42:33;;;;;;;16.85;10.15;;;;;;;10.25;64.86;99854.47;5014765;28;20107;-68
2024/01/01 00:45:02;;;;;;;17.02;9.35;;;;;;;10.23;64.87;99871.91;5021656;28;20046;-67
2024/01/01 00:47:30;;;;;;;14.82;8.48;;;;;;;10.21;64.79;99856.03;5021427;28;20046;-68
2024/01/01 00:49:58;;;;;;;18.10;8.57;;;;;;;10.21;65.00;99849.84;5006729;28;20050;-68
2024/01/01 00:52:26;;;;;;;14.52;8.38;;;;;;;10.19;64.72;99850.06;5023884;28;20141;-67
2024/01/01 00:54:53;;;;;;;12.32;6.82;;;;;;;10.18;64.70;99853.81;5021044;28;20053;-68
2024/01/01 00:57:21;;;;;;;14.20;7.10;;;;;;;10.19;65.08;99842.00;5023028;28;20049;-68
2024/01/01 00:59:49;;;;;;;14.60;7.13;;;;;;;10.17;64.84;99845.97;5021868;28;20054;-68
2024/01/01 01:02:19;;;;;;;11.75;6.30;;;;;;;10.17;64.88;99851.34;5019905;28;20050;-68
2024/01/01 01:04:47;;;;;;;11.52;5.97;;;;;;;10.17;65.02;99845.97;5022207;28;20425;-68
2024/01/01 01:07:32;;;;;;;13.02;6.72;;;;;;;10.16;65.26;99847.03;5022075;28;20160;-68
2024/01/01 01:10:00;;;;;;;13.95;6.00;;;;;;;10.14;65.16;99841.09;5005900;28;20054;-68
2024/01/01 01:12:28;;;;;;;14.20;5.90;;;;;;;10.13;65.19;99848.34;5038988;28;20048;-68
2024/01/01 01:14:56;;;;;;;15.98;6.57;;;;;;;10.14;65.37;99858.03;5121405;28;20047;-68
2024/01/01 01:17:25;;;;;;;13.88;5.90;;;;;;;10.15;65.11;99853.47;5014594;28;20104;-68
2024/01/01 01:19:53;;;;;;;14.55;6.28;;;;;;;10.13;65.28;99852.91;5016177;28;20052;-68
2024/01/01 01:22:20;;;;;;;12.13;6.05;;;;;;;10.13;65.32;99852.91;5019492;28;20106;-68
2024/01/01 01:24:48;;;;;;;10.68;4.80;;;;;;;10.13;65.35;99853.72;5001929;28;20046;-67
2024/01/01 01:27:16;;;;;;;9.90;5.03;;;;;;;10.09;65.17;99856.06;5012331;28;20099;-68
2024/01/01 01:29:44;;;;;;;13.00;4.97;;;;;;;10.10;65.10;99859.56;5015416;28;20095;-67
2024/01/01 01:32:11;;;;;;;8.55;4.53;;;;;;;10.09;65.31;99853.38;5028837;28;20050;-67
2024/01/01 01:34:41;;;;;;;10.25;4.78;;;;;;;10.08;65.41;99854.44;5036786;28;20487;-67
2024/01/01 01:37:08;;;;;;;12.35;4.63;;;;;;;10.08;65.30;99850.94;5014563;28;20050;-67
2024/01/01 01:39:36;;;;;;;11.95;4.85;;;;;;;10.06;65.33;99864.59;5029713;28;20046;-67
2024/01/01 01:42:04;;;;;;;11.32;4.28;;;;;;;10.07;65.56;99858.19;5036105;28;20064;-68
2024/01/01 01:44:33;;;;;;;12.23;4.10;;;;;;;10.06;65.58;99872.66;5024016;28;20540;-67
2024/01/01 01:47:01;;;;;;;10.07;3.67;;;;;;;10.05;65.82;99867.53;5023294;28;20499;-67
2024/01/01 01:49:29;;;;;;;9.88;3.33;;;;;;;10.05;65.81;99862.16;5023867;28;20057;-68
2024/01/01 01:52:02;;;;;;;9.15;3.33;;;;;;;10.05;65.69;99851.44;5021603;28;20057;-67
2024/01/01 01:54:32;;;;;;;9.32;3.53;;;;;;;10.04;66.07;99845.25;5031452;28;20046;-67
2024/01/01 01:57:00;;;;;;;7.70;3.35;;;;;;;10.02;65.99;99852.72;5018493;28;20053;-67
2024/01/01 01:59:29;;;;;;;9.30;3.83;;;;;;;10.03;66.08;99857.03;5023327;28;20057;-67
2024/01/01 02:01:58;;;;;;;9.38;3.33;;;;;;;10.02;65.95;99860.78;5023576;28;20050;-67
2024/01/01 02:04:26;;;;;;;9.30;3.40;;;;;;;10.02;65.96;99863.47;5024098;28;20083;-67
2024/01/01 02:06:53;;;;;;;8.02;3.58;;;;;;;10.01;66.07;99866.38;5024975;28;20046;-66
2024/01/01 02:09:23;;;;;;;11.40;3.30;;;;;;;10.00;66.22;99854.03;5020239;28;20061;-67
2024/01/01 02:11:50;;;;;;;11.55;3.45;;;;;;;9.99;66.04;99860.44;5029821;28;20068;-67
2024/01/01 02:14:18;;;;;;;12.60;3.08;;;;;;;9.99;66.10;99863.94;5021564;28;20114;-67
2024/01/01 02:16:48;;;;;;;8.45;3.08;;;;;;;10.03;66.24;99867.78;5018927;28;20103;-67
2024/01/01 02:19:20;;;;;;;9.52;3.63;;;;;;;10.03;65.81;99864.28;5023369;28;20045;-67
2024/01/01 02:21:51;;;;;;;11.18;3.13;;;;;;;10.02;66.24;99862.66;5012609;28;20050;-67
2024/01/01 02:24:21;;;;;;;8.70;3.55;;;;;;;9.98;65.85;99843.53;5023289;28;20080;-68
2024/01/01 02:26:49;;;;;;;9.80;2.67;;;;;;;9.99;65.99;99863.13;5016200;28;20053;-67
2024/01/01 02:29:18;;;;;;;11.45;3.00;;;;;;;9.98;66.21;99865.00;5024266;28;20073;-67
2024/01/01 02:31:46;;;;;;;7.40;3.03;;;;;;;9.97;66.15;99871.44;5018487;28;20091;-67
2024/01/01 02:34:14;;;;;;;11.10;3.03;;;;;;;9.98;66.38;99867.69;5022052;28;20052;-67
2024/01/01 02:36:42;;;;;;;9.13;2.58;;;;;;;9.99;66.01;99879.25;5012333;28;20487;-68
2024/01/01 02:39:10;;;;;;;9.65;2.90;;;;;;;9.97;66.18;99868.75;5015192;28;20041;-68
2024/01/01 02:41:40;;;;;;;7.80;2.63;;;;;;;9.97;66.15;99873.28;5022133;28;20113;-68
2024/01/01 02:44:08;;;;;;;9.07;2.75;;;;;;;9.97;66.46;99884.84;5017678;28;20103;-68
2024/01/01 02:46:36;;;;;;;8.07;2.50;;;;;;;10.04;66.16;99871.28;5021652;28;20387;-67
2024/01/01 02:49:03;;;;;;;7.97;3.63;;;;;;;9.99;65.95;99873.88;5025235;28;20153;-67
2024/01/01 02:51:31;;;;;;;15.15;4.80;;;;;;;9.95;66.24;99872.72;5014785;28;20148;-67
2024/01/01 02:53:59;;;;;;;12.75;2.92;;;;;;;9.94;66.44;99881.84;5020570;28;20054;-67
2024/01/01 02:56:28;;;;;;;11.95;3.00;;;;;;;9.93;66.08;99878.34;5022968;28;20054;-67
2024/01/01 02:58:57;;;;;;;12.23;2.97;;;;;;;10.00;66.18;99876.31;5013887;28;20056;-67
2024/01/01 03:01:25;;;;;;;12.05;2.72;;;;;;;9.94;66.08;99879.97;5021556;28;20095;-67
2024/01/01 03:03:52;;;;;;;9.60;2.42;;;;;;;9.91;66.07;99877.75;5027586;28;20543;-68
2024/01/01 03:06:20;;;;;;;8.23;2.65;;;;;;;9.89;66.11;99879.06;5024150;28;20126;-67
2024/01/01 03:08:48;;;;;;;13.80;2.90;;;;;;;9.88;66.40;99878.25;5025193;28;20045;-67
2024/01/01 03:11:16;;;;;;;11.57;2.97;;;;;;;9.86;66.35;99883.03;5029540;28;20049;-67
2024/01/01 03:13:44;;;;;;;10.38;2.13;;;;;;;9.87;66.14;99886.53;5031931;28;20088;-68
2024/01/01 03:16:15;;;;;;;8.70;2.33;;;;;;;9.81;66.29;99874.88;5015281;28;20053;-68
2024/01/01 03:18:42;;;;;;;10.95;3.55;;;;;;;9.87;65.99;99891.91;5020148;28;20046;-68
2024/01/01 03:21:10;;;;;;;14.02;2.90;;;;;;;9.84;66.17;99895.06;5015793;28;20415;-67
2024/01/01 03:23:38;;;;;;;13.82;2.88;;;;;;;9.85;66.17;99892.13;5014667;28;20057;-68
2024/01/01 03:26:06;;;;;;;12.75;3.45;;;;;;;9.84;66.01;99893.19;5018457;28;20081;-68
2024/01/01 03:28:34;;;;;;;8.40;2.42;;;;;;;9.84;66.37;99897.75;5027861;28;20127;-68
2024/01/01 03:31:01;;;;;;;11.02;3.08;;;;;;;9.83;66.10;99913.03;5029738;28;20361;-68
2024/01/01 03:33:34;;;;;;;9.38;2.50;;;;;;;9.76;66.15;99915.84;5029805;28;20054;-67
2024/01/01 03:36:02;;;;;;;9.80;2.50;;;;;;;9.85;66.20;99915.47;5062298;28;20046;-68
2024/01/01 03:38:29;;;;;;;12.38;2.65;;;;;;;9.80;66.34;99918.88;5024657;28;20074;-68
2024/01/01 03:40:57;;;;;;;11.50;2.70;;;;;;;9.79;66.25;99926.13;5028936;28;20045;-68
2024/01/01 03:43:25;;;;;;;9.38;2.42;;;;;;;9.81;66.46;99923.19;5031252;28;20049;-68
2024/01/01 03:45:53;;;;;;;9.50;2.33;;;;;;;9.79;66.48;99922.63;5025648;28;20058;-68
2024/01/01 03:48:21;;;;;;;10.75;2.83;;;;;;;9.79;66.53;99918.06;5021599;28;20046;-68
2024/01/01 03:50:50;;;;;;;10.77;2.95;;;;;;;9.79;66.26;99926.13;5027785;28;20041;-68
2024/01/01 03:53:18;;;;;;;12.73;2.95;;;;;;;9.81;66.20;99919.69;5023083;28;20475;-68
2024/01/01 03:55:46;;;;;;;9.50;2.53;;;;;;;9.81;66.23;99925.06;5022456;28;20460;-68
2024/01/01 03:58:13;;;;;;;14.20;2.50;;;;;;;9.79;66.58;99928.78;5024513;28;20080;-68
2024/01/01 04:00:41;;;;;;;10.82;3.03;;;;;;;9.80;66.40;99929.63;5030580;28;20517;-68
2024/01/01 04:03:09;;;;;;;12.45;2.33;;;;;;;9.80;66.20;99934.97;5022853;28;20066;-66
2024/01/01 04:05:37;;;;;;;15.07;3.63;;;;;;;9.78;65.99;99929.84;5025218;28;20052;-68
2024/01/01 04:08:07;;;;;;;9.50;2.45;;;;;;;9.79;66.26;99936.03;5026332;28;20049;-67
2024/01/01 04:10:35;;;;;;;12.02;2.63;;;;;;;9.78;66.33;99932.53;5026729;28;20050;-68
2024/01/01 04:13:03;;;;;;;10.77;2.55;;;;;;;9.77;66.07;99930.91;5055347;28;20115;-68
2024/01/01 04:15:31;;;;;;;11.52;2.50;;;;;;;9.77;66.68;99930.91;5034801;28;20046;-67
2024/01/01 04:17:59;;;;;;;9.60;2.42;;;;;;;9.77;66.42;99933.59;5017714;28;20045;-67
2024/01/01 04:20:27;;;;;;;10.35;2.42;;;;;;;9.77;66.32;99935.47;5027271;28;20514;-67
2024/01/01 04:22:55;;;;;;;11.38;2.45;;;;;;;9.77;66.41;99940.81;5025687;28;20079;-67
2024/01/01 04:25:24;;;;;;;9.75;2.17;;;;;;;9.76;66.14;99941.88;5025623;28;20050;-68
2024/01/01 04:27:52;;;;;;;7.93;2.78;;;;;;;9.77;66.54;99933.59;5030745;28;20068;-67
2024/01/01 04:30:19;;;;;;;7.72;2.28;;;;;;;9.86;66.32;99934.03;5025993;28;20058;-67
2024/01/01 04:32:47;;;;;;;6.35;1.92;;;;;;;9.82;66.27;99940.09;5027580;28;20058;-67
2024/01/01 04:35:15;;;;;;;9.43;2.55;;;;;;;9.79;65.98;99938.72;5025570;28;20052;-68
2024/01/01 04:37:43;;;;;;;10.43;2.20;;;;;;;9.78;66.29;99935.22;5013204;28;20053;-68
2024/01/01 04:40:11;;;;;;;6.90;2.63;;;;;;;9.77;66.41;99941.63;5023276;28;20046;-67
2024/01/01 04:42:40;;;;;;;9.52;2.45;;;;;;;9.77;65.98;99940.81;5023769;28;20049;-68
2024/01/01 04:45:09;;;;;;;5.25;2.00;;;;;;;9.78;66.10;99923.66;5033548;28;20053;-67
2024/01/01 04:47:37;;;;;;;10.68;2.85;;;;;;;9.76;66.16;99931.16;5021319;28;20045;-68
2024/01/01 04:50:06;;;;;;;12.07;2.50;;;;;;;9.76;66.31;99941.88;5026508;28;20053;-68
2024/01/01 04:52:34;;;;;;;11.38;2.60;;;;;;;9.75;66.04;99942.94;5027285;28;20064;-68
2024/01/01 04:55:02;;;;;;;11.57;1.98;;;;;;;9.75;66.15;99943.75;5027165;28;20076;-68
2024/01/01 04:57:30;;;;;;;10.88;2.40;;;;;;;9.73;66.05;99942.34;5026571;28;20099;-68
2024/01/01 04:59:59;;;;;;;10.20;3.50;;;;;;;9.73;65.76;99939.66;5025747;28;20068;-67
2024/01/01 05:02:27;;;;;;;7.40;2.10;;;;;;;9.73;66.14;99948.53;5021165;28;20057;-68
2024/01/01 05:04:55;;;;;;;12.05;2.10;;;;;;;9.68;65.87;99945.75;5024444;28;20046;-68
2024/01/01 05:07:22;;;;;;;8.35;2.05;;;;;;;9.69;66.09;99943.88;5017514;28;20046;-68
2024/01/01 05:09:50;;;;;;;14.07;2.50;;;;;;;9.68;65.86;99952.97;5026272;28;20455;-68
2024/01/01 05:12:18;;;;;;;9.15;1.70;;;;;;;9.68;66.02;99964.53;5036033;28;20057;-68
2024/01/01 05:14:46;;;;;;;10.52;2.25;;;;;;;9.68;65.77;99961.84;5021088;28;20049;-67
2024/01/01 05:17:17;;;;;;;8.00;2.47;;;;;;;9.68;65.99;99969.91;5022392;28;20053;-67
2024/01/01 05:19:45;;;;;;;8.07;2.10;;;;;;;9.66;65.91;99957.78;5023812;28;20483;-68
2024/01/01 05:22:13;;;;;;;9.60;2.40;;;;;;;9.67;66.23;99967.44;5028091;28;20109;-68
2024/01/01 05:24:41;;;;;;;8.07;1.90;;;;;;;9.67;66.13;99979.00;5030121;28;20103;-67
2024/01/01 05:27:09;;;;;;;7.43;2.05;;;;;;;9.65;66.06;99970.38;5024617;28;20050;-68
2024/01/01 05:29:40;;;;;;;7.25;2.00;;;;;;;9.70;65.73;99983.88;5017325;28;20049;-68
2024/01/01 05:32:08;;;;;;;9.18;2.67;;;;;;;9.66;65.95;99974.69;5009696;28;20054;-67
2024/01/01 05:34:37;;;;;;;7.45;2.42;;;;;;;9.64;66.11;99984.84;5025676;28;20090;-67
2024/01/01 05:37:05;;;;;;;6.50;1.70;;;;;;;9.64;66.09;99992.88;5028617;28;20050;-68
2024/01/01 05:39:33;;;;;;;8.25;1.73;;;;;;;9.63;65.89;99983.22;5022133;28;20118;-68
2024/01/01 05:42:01;;;;;;;8.93;2.10;;;;;;;9.61;65.88;99993.34;5024051;28;20045;-68
2024/01/01 05:44:29;;;;;;;9.63;2.50;;;;;;;9.55;65.75;99980.06;5024218;28;20107;-67
2024/01/01 05:46:57;;;;;;;9.68;3.60;;;;;;;9.59;65.79;99994.66;5028319;28;20068;-68
2024/01/01 05:49:25;;;;;;;7.78;2.20;;;;;;;9.58;65.75;99995.69;5032680;28;20041;-68
2024/01/01 05:51:54;;;;;;;9.50;2.50;;;;;;;9.58;66.17;99998.38;5024405;28;20050;-67
2024/01/01 05:54:22;;;;;;;9.15;2.10;;;;;;;9.58;65.76;99996.50;5027411;28;20152;-68
2024/01/01 05:56:50;;;;;;;10.05;2.25;;;;;;;9.57;65.88;100002.13;5030717;28;20049;-68
2024/01/01 05:59:17;;;;;;;7.53;2.00;;;;;;;9.57;65.97;99999.44;5022873;28;20042;-68
2024/01/01 06:01:45;;;;;;;6.93;1.80;;;;;;;9.55;66.20;100013.06;5026047;28;20041;-68
2024/01/01 06:04:13;;;;;;;9.00;1.98;;;;;;;9.56;66.41;100014.72;5026471;28;20061;-68
2024/01/01 06:06:41;;;;;;;9.02;1.98;;;;;;;9.57;66.17;100023.56;5021009;28;20479;-67
2024/01/01 06:09:10;;;;;;;10.25;2.58;;;;;;;9.56;65.95;100022.75;5020246;28;20080;-66
2024/01/01 06:11:38;;;;;;;7.80;2.85;;;;;;;9.55;66.33;100023.81;4677956;27;10001099;-67
2024/01/01 06:14:05;;;;;;;7.53;2.30;;;;;;;9.54;66.39;100018.69;5014214;28;20046;-67
2024/01/01 06:16:33;;;;;;;7.15;1.88;;;;;;;9.55;66.32;100023.00;5013660;28;20110;-67
2024/01/01 06:19:01;;;;;;;6.65;2.08;;;;;;;9.55;66.00;100023.00;5013625;28;20106;-67
2024/01/01 06:21:29;;;;;;;11.93;2.53;;;;;;;9.54;66.39;100018.69;5007508;28;20057;-67
2024/01/01 06:23:57;;;;;;;10.82;2.08;;;;;;;9.52;66.43;100029.66;5001526;28;20096;-67
2024/01/01 06:26:26;;;;;;;9.98;3.42;;;;;;;9.53;66.30;100041.19;5011157;28;20054;-66
2024/01/01 06:28:54;;;;;;;5.25;1.83;;;;;;;9.51;66.24;100036.06;5018349;28;20054;-67
2024/01/01 06:31:22;;;;;;;8.15;1.65;;;;;;;9.50;66.37;100047.03;5024606;28;20076;-67
2024/01/01 06:33:49;;;;;;;9.02;1.90;;;;;;;9.51;66.02;100048.66;5016471;28;20058;-67
2024/01/01 06:36:17;;;;;;;10.00;2.80;;;;;;;9.54;66.04;100050.88;5023632;28;20056;-67
2024/01/01 06:38:45;;;;;;;5.38;1.48;;;;;;;9.51;66.43;100052.16;5017630;28;20046;-67
2024/01/01 06:41:13;;;;;;;5.38;1.48;;;;;;;9.51;66.28;100062.06;5029948;28;20057;-67
2024/01/01 06:43:43;;;;;;;9.32;1.95;;;;;;;9.50;66.07;100071.16;5004228;28;20058;-67
2024/01/01 06:46:12;;;;;;;5.55;2.08;;;;;;;9.50;66.08;100073.84;5010076;28;20067;-66
2024/01/01 06:48:40;;;;;;;13.00;3.05;;;;;;;9.47;66.25;100075.13;5017614;28;20064;-66
2024/01/01 06:51:10;;;;;;;11.05;3.22;;;;;;;9.48;66.19;100075.94;5023768;28;20109;-66
2024/01/01 06:53:38;;;;;;;8.02;1.90;;;;;;;9.49;66.66;100078.38;5018761;28;20084;-67
2024/01/01 06:56:06;;;;;;;5.93;2.58;;;;;;;9.49;66.14;100074.91;5028512;28;20141;-67
2024/01/01 06:58:37;;;;;;;7.50;2.28;;;;;;;9.49;66.32;100105.22;5025923;28;20053;-67
2024/01/01 07:01:06;;;;;;;6.63;2.03;;;;;;;9.45;66.16;100096.81;5016821;28;20050;-67
2024/01/01 07:03:34;;;;;;;8.77;2.17;;;;;;;9.48;66.31;100090.16;5016899;28;20046;-68
2024/01/01 07:06:02;;;;;;;10.90;2.00;;;;;;;9.47;66.28;100104.63;5022975;28;20046;-67
2024/01/01 07:08:30;;;;;;;6.63;1.65;;;;;;;9.49;66.68;100104.41;5017576;28;20060;-68
2024/01/01 07:10:58;;;;;;;7.97;1.88;;;;;;;9.47;66.69;100107.31;5022307;28;20471;-67
2024/01/01 07:13:26;;;;;;;9.35;1.85;;;;;;;9.47;66.40;100091.22;5019148;28;20101;-67
2024/01/01 07:15:53;;;;;;;9.27;2.10;;;;;;;9.46;66.68;100117.22;5013839;28;20072;-67
2024/01/01 07:18:23;;;;;;;10.68;2.28;;;;;;;9.45;66.69;100117.44;5016861;28;20118;-67
2024/01/01 07:20:51;;;;;;;7.95;2.00;;;;;;;9.45;66.65;100122.81;5013820;28;20046;-67
2024/01/01 07:23:19;;;;;;;8.90;2.05;;;;;;;9.44;66.79;100122.00;5025412;28;20053;-68
2024/01/01 07:25:49;;;;;;;8.07;2.55;;;;;;;9.45;66.89;100118.28;5017110;28;20057;-67
2024/01/01 07:28:17;;;;;;;4.95;2.10;;;;;;;9.45;66.58;100141.59;5031099;28;20068;-67
2024/01/01 07:30:45;;;;;;;6.55;1.77;;;;;;;9.43;66.76;100141.81;5023571;28;20067;-66
2024/01/01 07:33:13;;;;;;;11.93;2.30;;;;;;;9.43;66.92;100143.69;5012620;28;20068;-67
2024/01/01 07:35:42;;;;;;;5.43;1.70;;;;;;;9.43;66.43;100144.50;5016906;28;20141;-67
2024/01/01 07:38:10;;;;;;;6.88;2.10;;;;;;;9.42;66.86;100147.41;5017994;28;20103;-67
2024/01/01 07:40:37;;;;;;;8.05;1.58;;;;;;;9.42;66.55;100155.47;5011659;28;20041;-66
2024/01/01 07:43:05;;;;;;;9.23;2.35;;;;;;;9.43;66.96;100154.41;5019986;28;20042;-65
2024/01/01 07:45:33;;;;;;;3.85;2.10;;;;;;;9.55;66.67;100152.56;5009137;28;20818;-67
2024/01/01 07:48:01;;;;;;;4.93;1.50;;;;;;;9.50;66.78;100159.66;5007570;28;20531;-66
2024/01/01 07:50:29;;;;;;;6.53;2.20;;;;;;;9.50;66.77;100146.25;5008804;28;20061;-64
2024/01/01 07:52:58;;;;;;;8.88;1.80;;;;;;;9.48;66.90;100148.34;5020848;28;20045;-66
2024/01/01 07:55:26;;;;;;;5.57;1.75;;;;;;;9.46;66.84;100156.63;5015310;28;20054;-67
2024/01/01 07:57:54;;;;;;;5.35;1.58;;;;;;;9.45;66.93;100152.31;5047505;28;20043;-67
2024/01/01 08:00:23;;;;;;;8.65;2.03;;;;;;;9.47;66.67;100160.94;5015995;28;20057;-67
2024/01/01 08:02:51;;;;;;;10.50;2.17;;;;;;;9.58;66.72;100152.09;5022023;28;20068;-70
2024/01/01 08:05:19;;;;;;;6.82;2.28;;;;;;;9.57;66.61;100165.75;5021580;28;20072;-67
2024/01/01 08:07:48;;;;;;;9.32;2.42;;;;;;;9.46;66.28;100173.53;5022947;28;20076;-70
2024/01/01 08:10:18;;;;;;;5.95;1.73;;;;;;;9.42;66.33;100168.88;5030062;28;20070;-71
2024/01/01 08:12:46;;;;;;;7.35;1.42;;;;;;;9.39;66.83;100180.88;5031404;28;20049;-71
2024/01/01 08:15:13;;;;;;;6.40;1.52;;;;;;;9.39;66.76;100194.28;5026055;28;20057;-66
2024/01/01 08:17:41;;;;;;;6.72;1.92;;;;;;;9.40;66.81;100189.75;5009005;28;20475;-76
2024/01/01 08:20:11;;;;;;;8.15;2.03;;;;;;;9.43;66.80;100195.47;5021923;28;20150;-77
2024/01/01 08:22:39;;;;;;;6.10;1.63;;;;;;;9.39;66.97;100196.97;5024744;28;20056;-70
2024/01/01 08:25:07;;;;;;;8.05;2.10;;;;;;;9.37;66.97;100192.88;5023184;28;20049;-70
2024/01/01 08:27:36;;;;;;;12.77;2.10;;;;;;;9.36;67.20;100197.44;5037416;28;20072;-70
2024/01/01 08:30:06;;;;;;;4.90;1.42;;;;;;;9.37;66.94;100200.94;5012768;28;20065;-69
2024/01/01 08:32:34;;;;;;;7.93;2.00;;;;;;;9.36;66.90;100204.66;5015769;28;20061;-69
2024/01/01 08:35:02;;;;;;;7.63;2.28;;;;;;;9.35;66.50;100209.19;5020283;28;20086;-70
2024/01/01 08:37:30;;;;;;;7.07;1.83;;;;;;;9.34;66.95;100222.84;5009796;28;20139;-71
2024/01/01 08:39:58;;;;;;;10.23;1.85;;;;;;;9.33;66.72;100223.88;5018426;28;20123;-70
2024/01/01 08:42:26;;;;;;;8.45;2.13;;;;;;;9.34;66.64;100230.88;5022163;28;20060;-69
2024/01/01 08:44:55;;;;;;;7.65;2.15;;;;;;;9.32;66.90;100236.47;5016470;28;20100;-71
2024/01/01 08:47:23;;;;;;;8.85;1.92;;;;;;;9.35;67.12;100238.69;5033884;28;20057;-67
2024/01/01 08:49:51;;;;;;;8.23;2.13;;;;;;;9.43;67.05;100234.88;5019324;28;20077;-72
2024/01/01 08:52:18;;;;;;;9.07;2.25;;;;;;;9.54;66.33;100234.09;5018382;28;20062;-70
2024/01/01 08:54:46;;;;;;;9.73;1.95;;;;;;;9.73;65.88;100232.13;5020566;28;20062;-69
2024/01/01 08:57:15;;;;;;;8.20;2.10;;;;;;;9.87;65.16;100236.25;5034196;28;20117;-69
2024/01/01 08:59:42;;;;;;;6.93;1.92;;;;;;;10.03;65.07;100238.22;5022187;28;20638;-70
2024/01/01 09:02:12;;;;;;;8.25;1.80;;;;;;;10.18;64.39;100251.19;5016359;28;20049;-70
2024/01/01 09:04:39;;;;;;;8.85;2.10;;;;;;;10.34;63.58;100255.06;5021741;28;20163;-69
2024/01/01 09:07:07;;;;;;;6.65;2.10;;;;;;;10.41;63.36;100251.19;5018818;28;20083;-67
2024/01/01 09:09:37;;;;;;;12.88;2.05;;;;;;;10.33;63.45;100243.50;5024115;28;20050;-71
2024/01/01 09:12:05;;;;;;;8.13;2.40;;;;;;;10.32;63.66;100255.31;5018178;28;20129;-68
2024/01/01 09:14:34;;;;;;;5.88;2.00;;;;;;;10.25;64.05;100257.28;5044685;28;20050;-69
2024/01/01 09:17:03;;;;;;;7.72;2.33;;;;;;;10.16;64.46;100266.72;5002619;28;20113;-70
2024/01/01 09:19:33;;;;;;;6.60;1.75;;;;;;;10.06;64.69;100269.16;5004747;28;20099;-69
2024/01/01 09:22:01;;;;;;;9.82;2.00;;;;;;;9.98;65.03;100272.19;5023039;28;20107;-70
2024/01/01 09:24:28;;;;;;;5.88;1.85;;;;;;;9.92;65.46;100271.25;5017989;28;20050;-70
2024/01/01 09:26:56;;;;;;;10.35;2.40;;;;;;;9.89;65.63;100278.94;5003361;28;20054;-71
2024/01/01 09:29:24;;;;;;;11.90;2.55;;;;;;;9.84;65.75;100282.31;5014342;28;20049;-70
2024/01/01 09:31:52;;;;;;;13.30;3.45;;;;;;;9.82;65.72;100272.88;5008213;28;20149;-70
2024/01/01 09:34:20;;;;;;;10.45;3.75;;;;;;;9.86;65.72;100282.91;5016071;28;20117;-69
2024/01/01 09:36:49;;;;;;;11.70;2.70;;;;;;;9.81;65.48;100298.88;5024376;28;20105;-69
2024/01/01 09:39:29;;;;;;;9.13;2.50;;;;;;;9.85;65.52;100301.94;5006692;28;20046;-69
2024/01/01 09:41:57;;;;;;;13.35;3.58;;;;;;;9.82;65.77;100291.66;5021714;28;20132;-69
2024/01/01 09:44:26;;;;;;;7.15;2.50;;;;;;;9.78;66.21;100302.03;5016657;28;20058;-69
2024/01/01 09:46:54;;;;;;;10.43;3.15;;;;;;;9.81;66.22;100314.19;5001462;28;20090;-67
2024/01/01 09:49:24;;;;;;;8.13;2.30;;;;;;;9.95;65.44;100331.72;5016917;28;20046;-68
2024/01/01 09:51:56;;;;;;;9.55;2.83;;;;;;;10.15;65.04;100317.97;5009421;28;20045;-69
2024/01/01 09:54:24;;;;;;;11.38;2.45;;;;;;;10.25;64.46;100316.38;5020668;28;20052;-69
2024/01/01 09:56:52;;;;;;;7.68;2.28;;;;;;;10.49;64.13;100324.41;5013644;28;20049;-69
2024/01/01 09:59:34;;;;;;;7.60;2.85;;;;;;;10.67;63.20;100330.47;5025972;28;20058;-69
2024/01/01 10:02:05;;;;;;;7.95;2.20;;;;;;;10.78;62.54;100323.47;5010727;28;20067;-69
2024/01/01 10:04:34;;;;;;;12.57;3.00;;;;;;;10.96;62.42;100335.94;5010365;28;20072;-69
2024/01/01 10:07:04;;;;;;;8.07;2.97;;;;;;;11.06;61.31;100347.72;5021703;28;20066;-69
2024/01/01 10:09:32;;;;;;;10.13;2.60;;;;;;;11.16;61.50;100339.03;5019928;28;20075;-67
2024/01/01 10:12:09;;;;;;;7.60;2.10;;;;;;;11.31;61.13;100336.66;5020751;28;20046;-69
2024/01/01 10:14:45;;;;;;;10.95;2.53;;;;;;;11.35;60.82;100340.50;5003077;28;20050;-69
2024/01/01 10:17:13;;;;;;;14.55;2.50;;;;;;;11.39;60.83;100336.28;5010325;28;20472;-69
2024/01/01 10:19:49;;;;;;;9.25;2.35;;;;;;;11.40;60.84;100362.13;5008681;28;20077;-69
2024/01/01 10:22:19;;;;;;;9.05;2.05;;;;;;;11.47;60.72;100350.41;5013743;28;20058;-67
2024/01/01 10:24:47;;;;;;;6.50;2.30;;;;;;;11.48;60.79;100355.56;5020520;28;20065;-69
2024/01/01 10:27:20;;;;;;;9.27;2.15;;;;;;;11.47;60.79;100347.72;5021123;28;20053;-70
2024/01/01 10:29:48;;;;;;;10.13;2.28;;;;;;;11.44;60.90;100367.84;5020354;28;20049;-69
2024/01/01 10:32:17;;;;;;;9.15;2.33;;;;;;;11.47;61.01;100367.38;5009218;28;20122;-69
2024/01/01 10:34:46;;;;;;;9.02;2.10;;;;;;;11.47;61.26;100370.06;5004441;28;20113;-70
2024/01/01 10:37:15;;;;;;;8.32;2.47;;;;;;;11.43;61.06;100368.91;5019814;28;20265;-69
2024/01/01 10:39:45;;;;;;;9.25;3.80;;;;;;;11.35;61.61;100378.19;5018706;28;20098;-69
2024/01/01 10:42:13;;;;;;;13.50;2.47;;;;;;;11.17;62.04;100378.34;5020575;28;20395;-69
2024/01/01 10:44:40;;;;;;;8.45;2.40;;;;;;;10.99;62.56;100383.88;5022423;28;20050;-72
2024/01/01 10:47:09;;;;;;;9.45;2.33;;;;;;;10.80;63.34;100379.66;5011602;28;20050;-69
2024/01/01 10:49:41;;;;;;;9.45;3.00;;;;;;;10.64;63.91;100398.13;5005974;28;20057;-69
2024/01/01 10:52:24;;;;;;;11.70;2.33;;;;;;;10.53;64.41;100384.69;5021612;28;20050;-69
2024/01/01 10:55:16;;;;;;;12.23;2.75;;;;;;;10.59;64.36;100389.94;5018580;28;20072;-69
2024/01/01 10:58:06;;;;;;;8.95;2.05;;;;;;;10.76;63.82;100390.88;5021623;28;20058;-68
2024/01/01 11:00:41;;;;;;;7.90;2.38;;;;;;;10.90;63.80;100390.66;5001422;28;20526;-68
2024/01/01 11:03:13;;;;;;;12.20;2.65;;;;;;;11.06;63.16;100387.25;5000930;28;20047;-69
2024/01/01 11:05:42;;;;;;;9.82;2.15;;;;;;;11.15;62.64;100393.06;5027667;28;20079;-68
2024/01/01 11:08:10;;;;;;;10.07;2.80;;;;;;;11.32;62.20;100388.59;5021294;28;20505;-69
2024/01/01 11:10:44;;;;;;;11.65;2.85;;;;;;;11.41;61.64;100385.28;5010151;28;20054;-69
2024/01/01 11:13:34;;;;;;;8.82;2.70;;;;;;;11.57;61.29;100394.50;5003537;28;20050;-69
2024/01/01 11:16:04;;;;;;;12.05;2.75;;;;;;;11.61;61.21;100392.94;5019851;28;20058;-68
2024/01/01 11:18:33;;;;;;;9.45;3.17;;;;;;;11.68;61.16;100387.44;5018035;28;20079;-67
2024/01/01 11:21:06;;;;;;;11.65;2.47;;;;;;;11.65;61.04;100394.13;5011094;28;20502;-67
2024/01/01 11:23:40;;;;;;;12.07;2.63;;;;;;;11.56;61.06;100397.41;5011962;28;20416;-66
2024/01/01 11:26:30;;;;;;;10.77;2.75;;;;;;;11.36;62.04;100404.03;5025919;28;20045;-70
2024/01/01 11:29:00;;;;;;;15.15;3.47;;;;;;;11.14;62.81;100407.56;5019959;28;20053;-68
2024/01/01 11:31:29;;;;;;;9.30;2.55;;;;;;;10.96;63.16;100401.28;5018928;28;20083;-67
2024/01/01 11:34:05;;;;;;;12.50;2.83;;;;;;;10.83;63.62;100409.59;5009395;28;20062;-66
2024/01/01 11:36:48;;;;;;;14.27;3.38;;;;;;;10.71;64.08;100412.28;5013508;28;20146;-67